Time;durP1;ratioP1;P1;durP2;ratioP2;P2;SDS_P1;SDS_P2;PMS_P1;PMS_P2;Temp;Humidity;BMP_temperature;BMP_pressure;BME280_temperature;BME280_humidity;BME280_pressure;Samples;Min_cycle;Max_cycle;Signal;HPM_P1;HPM_P2
2023/07/25 00:00:23;;;;;;;;;2.67;2.67;;;;;;;;5015555;28;51910;-61
2023/07/25 00:02:48;;;;;;;;;3.00;2.67;;;;;;;;5015572;28;51021;-63
2023/07/25 00:05:13;;;;;;;;;3.00;2.67;;;;;;;;5014411;28;51162;-61
2023/07/25 00:07:39;;;;;;;;;3.00;2.67;;;;;;;;5015676;28;51143;-61
2023/07/25 00:10:04;;;;;;;;;2.00;2.00;;;;;;;;5014798;28;51904;-62
2023/07/25 00:12:29;;;;;;;;;2.67;2.67;;;;;;;;5015379;28;51090;-61
2023/07/25 00:14:54;;;;;;;;;2.00;2.00;;;;;;;;5015696;28;51118;-61
2023/07/25 00:17:20;;;;;;;;;2.67;2.67;;;;;;;;5015907;28;51002;-62
2023/07/25 00:19:45;;;;;;;;;2.00;1.00;;;;;;;;5011657;28;53933;-62
2023/07/25 00:22:10;;;;;;;;;2.33;1.67;;;;;;;;5013712;28;51087;-61
2023/07/25 00:24:35;;;;;;;;;2.33;2.33;;;;;;;;5015404;28;51181;-61
2023/07/25 00:27:01;;;;;;;;;1.00;1.00;;;;;;;;5015125;28;51093;-61
2023/07/25 00:29:26;;;;;;;;;1.00;1.00;;;;;;;;5013389;28;53515;-61
2023/07/25 00:31:51;;;;;;;;;2.00;2.00;;;;;;;;5015016;28;51083;-61
2023/07/25 00:34:16;;;;;;;;;2.00;2.00;;;;;;;;5004758;28;50901;-61
2023/07/25 00:36:41;;;;;;;;;2.00;1.67;;;;;;;;4995578;28;51161;-61
2023/07/25 00:39:07;;;;;;;;;2.67;2.67;;;;;;;;4993784;28;53102;-61
2023/07/25 00:41:32;;;;;;;;;3.67;2.67;;;;;;;;4995024;28;50983;-61
2023/07/25 00:43:57;;;;;;;;;5.33;2.00;;;;;;;;4995401;28;51234;-61
2023/07/25 00:46:23;;;;;;;;;2.67;2.00;;;;;;;;4995405;28;51019;-61
2023/07/25 00:48:48;;;;;;;;;3.00;2.67;;;;;;;;4993864;28;51769;-61
2023/07/25 00:51:14;;;;;;;;;1.67;1.67;;;;;;;;4995154;28;50763;-61
2023/07/25 00:53:39;;;;;;;;;2.67;2.67;;;;;;;;4995123;28;50942;-61
2023/07/25 00:56:05;;;;;;;;;1.33;1.33;;;;;;;;4994758;28;51210;-61
2023/07/25 00:58:30;;;;;;;;;3.67;3.67;;;;;;;;4994612;28;51132;-61
2023/07/25 01:01:05;;;;;;;;;3.00;3.00;;;;;;;;4994785;28;50929;-61
2023/07/25 01:03:32;;;;;;;;;2.67;2.33;;;;;;;;4994824;28;50968;-61
2023/07/25 01:05:59;;;;;;;;;2.00;2.00;;;;;;;;4993483;28;51069;-61
2023/07/25 01:08:24;;;;;;;;;2.00;2.00;;;;;;;;5000018;28;51060;-61
2023/07/25 01:10:50;;;;;;;;;2.33;2.33;;;;;;;;5013860;28;51169;-61
2023/07/25 01:13:15;;;;;;;;;1.67;1.67;;;;;;;;5014527;28;50906;-61
2023/07/25 01:15:40;;;;;;;;;2.33;2.33;;;;;;;;5014537;28;51124;-61
2023/07/25 01:18:06;;;;;;;;;3.00;3.00;;;;;;;;5014166;28;51943;-61
2023/07/25 01:20:34;;;;;;;;;2.33;2.33;;;;;;;;5014246;28;50872;-61
2023/07/25 01:23:00;;;;;;;;;4.00;3.00;;;;;;;;5014419;28;50980;-61
2023/07/25 01:25:25;;;;;;;;;2.33;2.33;;;;;;;;5014088;28;51037;-61
2023/07/25 01:27:50;;;;;;;;;4.00;3.00;;;;;;;;5013690;28;51255;-61
2023/07/25 01:30:15;;;;;;;;;3.67;3.67;;;;;;;;5014020;28;50998;-61
2023/07/25 01:32:40;;;;;;;;;3.67;3.00;;;;;;;;5014134;28;50992;-61
2023/07/25 01:35:06;;;;;;;;;2.33;2.33;;;;;;;;5014147;28;50947;-61
2023/07/25 01:37:31;;;;;;;;;2.00;2.00;;;;;;;;5012687;28;51932;-61
2023/07/25 01:39:56;;;;;;;;;4.33;3.00;;;;;;;;5013639;28;51170;-61
2023/07/25 01:42:22;;;;;;;;;4.00;4.00;;;;;;;;5014359;28;50970;-61
2023/07/25 01:44:47;;;;;;;;;4.00;4.00;;;;;;;;5014283;28;51094;-61
2023/07/25 01:47:12;;;;;;;;;3.00;3.00;;;;;;;;5013801;28;51737;-61
2023/07/25 01:49:37;;;;;;;;;2.00;2.00;;;;;;;;5013728;28;51274;-61
2023/07/25 01:52:03;;;;;;;;;2.67;2.67;;;;;;;;5014232;28;51193;-62
2023/07/25 01:54:28;;;;;;;;;3.00;3.00;;;;;;;;5014047;28;51213;-62
2023/07/25 01:56:53;;;;;;;;;4.00;4.00;;;;;;;;5013465;28;51805;-61
2023/07/25 01:59:19;;;;;;;;;3.00;3.00;;;;;;;;5013385;28;50944;-61
2023/07/25 02:01:44;;;;;;;;;2.67;2.67;;;;;;;;5013866;28;50947;-61
2023/07/25 02:04:09;;;;;;;;;3.00;3.00;;;;;;;;5013747;28;50958;-61
2023/07/25 02:06:34;;;;;;;;;4.00;4.00;;;;;;;;5013385;28;51700;-61
2023/07/25 02:08:59;;;;;;;;;2.00;2.00;;;;;;;;5013154;28;51332;-61
2023/07/25 02:11:25;;;;;;;;;5.00;5.00;;;;;;;;5011891;28;51066;-61
2023/07/25 02:13:50;;;;;;;;;4.00;4.00;;;;;;;;5013824;28;50957;-61
2023/07/25 02:16:15;;;;;;;;;4.33;4.33;;;;;;;;5013276;28;52029;-61
2023/07/25 02:18:40;;;;;;;;;3.67;3.67;;;;;;;;5013593;28;51228;-61
2023/07/25 02:21:05;;;;;;;;;3.67;3.67;;;;;;;;5010428;28;51869;-61
2023/07/25 02:23:31;;;;;;;;;9.00;8.00;;;;;;;;5012808;28;51119;-62
2023/07/25 02:25:56;;;;;;;;;8.67;8.00;;;;;;;;5012245;28;52115;-61
2023/07/25 02:28:21;;;;;;;;;5.67;5.00;;;;;;;;5013244;28;50922;-61
2023/07/25 02:30:46;;;;;;;;;7.67;6.67;;;;;;;;5013397;28;51019;-62
2023/07/25 02:33:12;;;;;;;;;8.00;7.33;;;;;;;;5012022;28;51325;-61
2023/07/25 02:35:37;;;;;;;;;5.67;5.00;;;;;;;;5012855;28;51015;-61
2023/07/25 02:38:02;;;;;;;;;5.00;5.00;;;;;;;;5013059;28;50913;-61
2023/07/25 02:40:28;;;;;;;;;4.67;4.00;;;;;;;;5013028;28;51202;-61
2023/07/25 02:42:53;;;;;;;;;4.00;4.00;;;;;;;;5013328;28;50857;-61
2023/07/25 02:45:18;;;;;;;;;5.00;4.00;;;;;;;;5012940;28;51669;-61
2023/07/25 02:47:43;;;;;;;;;3.33;3.00;;;;;;;;5012799;28;51093;-61
2023/07/25 02:50:09;;;;;;;;;6.00;5.00;;;;;;;;5013077;28;50849;-61
2023/07/25 02:52:34;;;;;;;;;5.33;5.33;;;;;;;;5013189;28;51099;-61
2023/07/25 02:54:59;;;;;;;;;5.67;5.67;;;;;;;;5012594;28;51898;-61
2023/07/25 02:57:24;;;;;;;;;4.00;4.00;;;;;;;;5013052;28;50946;-61
2023/07/25 02:59:50;;;;;;;;;7.33;6.33;;;;;;;;5012776;28;50806;-61
2023/07/25 03:02:15;;;;;;;;;6.67;6.00;;;;;;;;5013250;28;50796;-61
2023/07/25 03:04:40;;;;;;;;;4.00;3.67;;;;;;;;5012806;28;51239;-61
2023/07/25 03:07:05;;;;;;;;;5.67;5.67;;;;;;;;5012838;28;51145;-61
2023/07/25 03:09:30;;;;;;;;;4.33;4.00;;;;;;;;5012287;28;50997;-61
2023/07/25 03:11:56;;;;;;;;;6.00;6.00;;;;;;;;5013894;28;50965;-61
2023/07/25 03:14:21;;;;;;;;;8.00;6.00;;;;;;;;5016039;28;51097;-61
2023/07/25 03:16:46;;;;;;;;;6.00;5.00;;;;;;;;5014940;28;51127;-61
2023/07/25 03:19:11;;;;;;;;;4.67;4.33;;;;;;;;5016212;28;50970;-62
2023/07/25 03:21:36;;;;;;;;;5.00;4.00;;;;;;;;5016514;28;51118;-61
2023/07/25 03:24:02;;;;;;;;;6.33;5.67;;;;;;;;5015672;28;51028;-61
2023/07/25 03:26:27;;;;;;;;;3.00;3.00;;;;;;;;5014499;28;51124;-61
2023/07/25 03:28:52;;;;;;;;;5.33;5.33;;;;;;;;5014959;28;51352;-62
2023/07/25 03:31:17;;;;;;;;;5.00;5.00;;;;;;;;5016151;28;51098;-60
2023/07/25 03:33:42;;;;;;;;;4.67;3.33;;;;;;;;5015834;28;51096;-61
2023/07/25 03:36:08;;;;;;;;;5.33;4.33;;;;;;;;5014680;28;51015;-61
2023/07/25 03:38:33;;;;;;;;;3.33;3.00;;;;;;;;5015803;28;51152;-61
2023/07/25 03:40:59;;;;;;;;;3.00;3.00;;;;;;;;5014596;28;51192;-61
2023/07/25 03:43:25;;;;;;;;;4.67;4.67;;;;;;;;5015524;28;52094;-61
2023/07/25 03:45:50;;;;;;;;;3.67;3.67;;;;;;;;5015939;28;51145;-61
2023/07/25 03:48:15;;;;;;;;;2.00;2.00;;;;;;;;5015791;28;52258;-61
2023/07/25 03:50:40;;;;;;;;;3.33;3.00;;;;;;;;5014787;28;51222;-61
2023/07/25 03:53:05;;;;;;;;;4.67;3.67;;;;;;;;5015354;28;51747;-61
2023/07/25 03:55:31;;;;;;;;;5.00;5.00;;;;;;;;5015322;28;50983;-61
2023/07/25 03:57:56;;;;;;;;;4.67;4.00;;;;;;;;5014297;28;50919;-61
2023/07/25 04:00:21;;;;;;;;;4.00;4.00;;;;;;;;5014484;28;50996;-61
2023/07/25 04:02:47;;;;;;;;;4.00;4.00;;;;;;;;5013943;28;54258;-61
2023/07/25 04:05:12;;;;;;;;;6.33;5.67;;;;;;;;5014356;28;50930;-61
2023/07/25 04:07:37;;;;;;;;;5.67;5.00;;;;;;;;5015353;28;51141;-61
2023/07/25 04:10:02;;;;;;;;;5.67;5.00;;;;;;;;5015028;28;50817;-61
2023/07/25 04:12:28;;;;;;;;;3.67;3.67;;;;;;;;5014937;28;52045;-62
2023/07/25 04:14:53;;;;;;;;;3.33;3.33;;;;;;;;5015485;28;50991;-61
2023/07/25 04:17:18;;;;;;;;;4.33;3.67;;;;;;;;5015338;28;51076;-61
2023/07/25 04:19:43;;;;;;;;;5.00;5.00;;;;;;;;5014407;28;50944;-61
2023/07/25 04:22:09;;;;;;;;;4.67;4.67;;;;;;;;5011773;28;51917;-61
2023/07/25 04:24:34;;;;;;;;;6.00;5.67;;;;;;;;5003873;28;50869;-61
2023/07/25 04:26:59;;;;;;;;;3.00;2.00;;;;;;;;4995011;28;51158;-61
2023/07/25 04:29:24;;;;;;;;;5.00;5.00;;;;;;;;4995490;28;51020;-62
2023/07/25 04:31:49;;;;;;;;;6.67;6.67;;;;;;;;4994803;28;51147;-61
2023/07/25 04:34:15;;;;;;;;;3.67;3.33;;;;;;;;4995353;28;51082;-61
2023/07/25 04:36:40;;;;;;;;;7.33;7.33;;;;;;;;4995096;28;51074;-61
2023/07/25 04:39:05;;;;;;;;;8.67;8.33;;;;;;;;4995238;28;51159;-60
2023/07/25 04:41:30;;;;;;;;;12.33;11.33;;;;;;;;4994375;28;51069;-61
2023/07/25 04:43:55;;;;;;;;;14.67;13.67;;;;;;;;4995082;28;51066;-61
2023/07/25 04:46:21;;;;;;;;;13.33;12.00;;;;;;;;4994791;28;51290;-61
2023/07/25 04:48:46;;;;;;;;;10.33;9.33;;;;;;;;4995136;28;51195;-61
2023/07/25 04:51:11;;;;;;;;;9.67;8.33;;;;;;;;4994663;28;51104;-61
2023/07/25 04:53:36;;;;;;;;;9.00;8.00;;;;;;;;4994750;28;51082;-60
2023/07/25 04:56:02;;;;;;;;;10.00;9.33;;;;;;;;4994583;28;51023;-61
2023/07/25 04:58:27;;;;;;;;;6.67;6.00;;;;;;;;4994935;28;51334;-62
2023/07/25 05:00:52;;;;;;;;;5.00;4.67;;;;;;;;4994498;28;51119;-60
2023/07/25 05:03:18;;;;;;;;;3.67;3.67;;;;;;;;4994761;28;50964;-60
2023/07/25 05:05:43;;;;;;;;;6.67;5.67;;;;;;;;4994554;28;51178;-61
2023/07/25 05:08:08;;;;;;;;;6.33;5.67;;;;;;;;4998230;28;51136;-61
2023/07/25 05:10:35;;;;;;;;;5.00;5.00;;;;;;;;5013704;28;51755;-60
2023/07/25 05:13:00;;;;;;;;;7.67;7.00;;;;;;;;5013048;28;51085;-61
2023/07/25 05:15:25;;;;;;;;;6.67;6.33;;;;;;;;5014199;28;51198;-61
2023/07/25 05:17:50;;;;;;;;;6.33;6.33;;;;;;;;5014710;28;50813;-62
2023/07/25 05:20:15;;;;;;;;;7.33;7.33;;;;;;;;5013837;28;51393;-62
2023/07/25 05:22:41;;;;;;;;;10.00;9.00;;;;;;;;5014113;28;50975;-61
2023/07/25 05:25:06;;;;;;;;;3.33;3.00;;;;;;;;5013941;28;51049;-60
2023/07/25 05:27:31;;;;;;;;;5.67;5.67;;;;;;;;5014156;28;51316;-60
2023/07/25 05:29:56;;;;;;;;;7.33;7.33;;;;;;;;5013921;28;51712;-60
2023/07/25 05:32:22;;;;;;;;;7.00;7.00;;;;;;;;5013934;28;51115;-61
2023/07/25 05:34:47;;;;;;;;;5.67;5.33;;;;;;;;5013331;28;51049;-62
2023/07/25 05:37:12;;;;;;;;;6.67;6.00;;;;;;;;5014300;28;51122;-62
2023/07/25 05:39:38;;;;;;;;;7.00;6.33;;;;;;;;5013349;28;51058;-62
2023/07/25 05:42:03;;;;;;;;;8.67;6.00;;;;;;;;5013957;28;50900;-62
2023/07/25 05:44:29;;;;;;;;;7.33;7.33;;;;;;;;5013792;28;51734;-61
2023/07/25 05:46:54;;;;;;;;;7.67;7.33;;;;;;;;5013893;28;51262;-60
2023/07/25 05:49:19;;;;;;;;;10.00;9.33;;;;;;;;5013667;28;51658;-60
2023/07/25 05:51:44;;;;;;;;;6.00;6.00;;;;;;;;5013932;28;51154;-60
2023/07/25 05:54:09;;;;;;;;;8.00;8.00;;;;;;;;5013613;28;51050;-61
2023/07/25 05:56:35;;;;;;;;;6.00;6.00;;;;;;;;5013482;28;51236;-61
2023/07/25 05:59:00;;;;;;;;;7.67;7.67;;;;;;;;5013335;28;50915;-60
2023/07/25 06:01:25;;;;;;;;;7.00;7.00;;;;;;;;5009942;28;50993;-60
2023/07/25 06:03:50;;;;;;;;;7.33;7.00;;;;;;;;5012832;28;50806;-60
2023/07/25 06:06:15;;;;;;;;;6.33;6.33;;;;;;;;5012928;28;51176;-60
2023/07/25 06:08:40;;;;;;;;;7.33;7.33;;;;;;;;5012595;28;51175;-61
2023/07/25 06:11:06;;;;;;;;;7.67;6.67;;;;;;;;5011547;28;51082;-61
2023/07/25 06:13:33;;;;;;;;;7.33;7.00;;;;;;;;5013429;28;51193;-62
2023/07/25 06:15:58;;;;;;;;;8.33;6.33;;;;;;;;5013589;28;51077;-63
2023/07/25 06:18:23;;;;;;;;;7.00;7.00;;;;;;;;5012984;28;51148;-61
2023/07/25 06:20:49;;;;;;;;;6.33;6.33;;;;;;;;5013000;28;50987;-62
2023/07/25 06:23:14;;;;;;;;;8.67;8.33;;;;;;;;5013389;28;51331;-61
2023/07/25 06:25:40;;;;;;;;;10.00;9.00;;;;;;;;5013062;28;51039;-62
2023/07/25 06:28:05;;;;;;;;;6.67;6.67;;;;;;;;5013108;28;51945;-60
2023/07/25 06:30:31;;;;;;;;;10.33;9.33;;;;;;;;5013505;28;51071;-61
2023/07/25 06:32:56;;;;;;;;;9.00;9.00;;;;;;;;5013204;28;51361;-62
2023/07/25 06:35:22;;;;;;;;;12.75;12.00;;;;;;;;5013109;28;51305;-63
2023/07/25 06:37:47;;;;;;;;;12.00;12.00;;;;;;;;5012827;28;51928;-62
2023/07/25 06:40:13;;;;;;;;;15.50;14.25;;;;;;;;5012445;28;51181;-61
2023/07/25 06:42:38;;;;;;;;;15.25;15.00;;;;;;;;5013442;28;50905;-62
2023/07/25 06:45:03;;;;;;;;;18.00;18.00;;;;;;;;5010861;28;51038;-63
2023/07/25 06:47:28;;;;;;;;;15.33;15.33;;;;;;;;5012258;28;51159;-61
2023/07/25 06:49:54;;;;;;;;;14.50;14.25;;;;;;;;5012329;28;51191;-62
2023/07/25 06:52:19;;;;;;;;;18.00;17.00;;;;;;;;5012654;28;50877;-61
2023/07/25 06:54:44;;;;;;;;;12.50;12.50;;;;;;;;5012552;28;51071;-62
2023/07/25 06:57:10;;;;;;;;;17.25;17.00;;;;;;;;5012483;28;51906;-62
2023/07/25 06:59:35;;;;;;;;;19.25;18.50;;;;;;;;5012107;28;51103;-61
2023/07/25 07:02:00;;;;;;;;;18.50;17.75;;;;;;;;5012332;28;51167;-62
2023/07/25 07:04:25;;;;;;;;;17.00;16.25;;;;;;;;5012452;28;51239;-62
2023/07/25 07:06:51;;;;;;;;;15.50;15.00;;;;;;;;5001082;28;51156;-62
2023/07/25 07:09:16;;;;;;;;;23.75;22.50;;;;;;;;5004902;28;51140;-61
2023/07/25 07:11:41;;;;;;;;;15.25;15.00;;;;;;;;5012169;28;51372;-62
2023/07/25 07:14:06;;;;;;;;;20.00;19.00;;;;;;;;5012396;28;50912;-62
2023/07/25 07:16:32;;;;;;;;;18.75;18.75;;;;;;;;5012211;28;52006;-64
2023/07/25 07:18:57;;;;;;;;;22.75;19.25;;;;;;;;5011979;28;51082;-60
2023/07/25 07:21:22;;;;;;;;;15.25;14.75;;;;;;;;5012249;28;51183;-61
2023/07/25 07:23:47;;;;;;;;;12.75;12.00;;;;;;;;5012149;28;50982;-61
2023/07/25 07:26:12;;;;;;;;;29.00;24.50;;;;;;;;5011796;28;51144;-61
2023/07/25 07:28:39;;;;;;;;;14.00;13.00;;;;;;;;5011946;28;51046;-61
2023/07/25 07:31:05;;;;;;;;;13.50;13.50;;;;;;;;5012091;28;50896;-61
2023/07/25 07:33:30;;;;;;;;;11.00;10.00;;;;;;;;5011739;28;51419;-61
2023/07/25 07:35:55;;;;;;;;;11.00;11.00;;;;;;;;5011697;28;51039;-61
2023/07/25 07:38:20;;;;;;;;;12.25;11.75;;;;;;;;5011849;28;51093;-61
2023/07/25 07:40:45;;;;;;;;;14.00;12.75;;;;;;;;5010631;28;50940;-61
2023/07/25 07:43:10;;;;;;;;;9.00;8.67;;;;;;;;5012144;28;51375;-62
2023/07/25 07:45:36;;;;;;;;;4.67;4.67;;;;;;;;5011902;28;51835;-62
2023/07/25 07:48:01;;;;;;;;;10.33;10.33;;;;;;;;5011389;28;51044;-62
2023/07/25 07:50:28;;;;;;;;;6.67;6.67;;;;;;;;5012119;28;50896;-61
2023/07/25 07:52:53;;;;;;;;;8.00;7.67;;;;;;;;5012211;28;50928;-62
2023/07/25 07:55:19;;;;;;;;;6.33;6.33;;;;;;;;5011414;28;50914;-62
2023/07/25 07:57:45;;;;;;;;;7.33;6.33;;;;;;;;5013880;28;50909;-61
2023/07/25 08:00:11;;;;;;;;;6.00;5.67;;;;;;;;5015268;28;50876;-63
2023/07/25 08:02:36;;;;;;;;;5.00;4.33;;;;;;;;5015411;28;51233;-63
2023/07/25 08:05:02;;;;;;;;;5.67;5.00;;;;;;;;5015071;28;50980;-62
2023/07/25 08:07:27;;;;;;;;;4.33;4.00;;;;;;;;5013748;28;51070;-62
2023/07/25 08:09:53;;;;;;;;;4.00;4.00;;;;;;;;5014913;28;51191;-60
2023/07/25 08:12:18;;;;;;;;;5.33;4.00;;;;;;;;5013731;28;50904;-61
2023/07/25 08:14:44;;;;;;;;;4.00;4.00;;;;;;;;5005821;28;52021;-61
2023/07/25 08:17:09;;;;;;;;;4.00;4.00;;;;;;;;5004658;28;51149;-61
2023/07/25 08:19:34;;;;;;;;;0.33;0.33;;;;;;;;5006298;28;50916;-62
2023/07/25 08:22:00;;;;;;;;;4.00;4.00;;;;;;;;4995187;28;51114;-62
2023/07/25 08:24:25;;;;;;;;;3.00;2.67;;;;;;;;4994822;28;51447;-61
2023/07/25 08:26:50;;;;;;;;;3.00;3.00;;;;;;;;4995180;28;50977;-62
2023/07/25 08:29:15;;;;;;;;;4.00;4.00;;;;;;;;4995101;28;51100;-61
2023/07/25 08:31:40;;;;;;;;;3.33;3.33;;;;;;;;5009936;28;51028;-62
2023/07/25 08:34:05;;;;;;;;;3.00;3.00;;;;;;;;5006482;28;52175;-61
2023/07/25 08:36:31;;;;;;;;;2.00;2.00;;;;;;;;4993329;28;50854;-61
2023/07/25 08:38:57;;;;;;;;;4.00;3.00;;;;;;;;4994835;28;51109;-61
2023/07/25 08:41:25;;;;;;;;;3.00;3.00;;;;;;;;4976901;28;51047;-61
2023/07/25 08:43:52;;;;;;;;;4.00;4.00;;;;;;;;4994614;28;52501;-61
2023/07/25 08:46:18;;;;;;;;;2.00;2.00;;;;;;;;4994329;28;51059;-61
2023/07/25 08:48:44;;;;;;;;;3.67;3.67;;;;;;;;4993465;28;51068;-62
2023/07/25 08:51:20;;;;;;;;;3.00;2.00;;;;;;;;4993571;28;51051;-62
2023/07/25 08:54:04;;;;;;;;;8.33;8.00;;;;;;;;4994255;28;51078;-61
2023/07/25 08:56:29;;;;;;;;;2.00;2.00;;;;;;;;4993832;28;51000;-62
2023/07/25 08:58:55;;;;;;;;;3.00;2.33;;;;;;;;4994428;28;51438;-62
2023/07/25 09:01:21;;;;;;;;;3.00;3.00;;;;;;;;4993107;28;51281;-61
2023/07/25 09:03:47;;;;;;;;;1.67;1.67;;;;;;;;4992562;28;51963;-61
2023/07/25 09:06:13;;;;;;;;;3.00;3.00;;;;;;;;4993979;28;50972;-61
2023/07/25 09:08:38;;;;;;;;;9.33;8.33;;;;;;;;5000676;28;51165;-61
2023/07/25 09:11:03;;;;;;;;;3.00;2.33;;;;;;;;5013628;28;50845;-61
2023/07/25 09:13:29;;;;;;;;;3.00;3.00;;;;;;;;5013928;28;50863;-61
2023/07/25 09:15:54;;;;;;;;;3.67;3.67;;;;;;;;5014151;28;50939;-61
2023/07/25 09:18:20;;;;;;;;;3.67;3.33;;;;;;;;5014286;28;51265;-61
2023/07/25 09:20:45;;;;;;;;;10.50;7.75;;;;;;;;5014139;28;51234;-61
2023/07/25 09:23:18;;;;;;;;;47.75;34.75;;;;;;;;5013564;28;52034;-62
2023/07/25 09:25:43;;;;;;;;;3.67;3.67;;;;;;;;5012238;28;50979;-61
2023/07/25 09:28:08;;;;;;;;;3.33;3.00;;;;;;;;5013614;28;51169;-61
2023/07/25 09:30:34;;;;;;;;;5.33;5.00;;;;;;;;5013588;28;50902;-61
2023/07/25 09:32:59;;;;;;;;;3.33;3.33;;;;;;;;5013450;28;50935;-61
2023/07/25 09:35:25;;;;;;;;;3.00;2.67;;;;;;;;5012039;28;50985;-61
2023/07/25 09:37:51;;;;;;;;;5.00;4.67;;;;;;;;5013498;28;51076;-61
2023/07/25 09:40:16;;;;;;;;;5.00;5.00;;;;;;;;5012093;28;51032;-61
2023/07/25 09:42:41;;;;;;;;;6.00;5.00;;;;;;;;5013392;28;51018;-62
2023/07/25 09:45:11;;;;;;;;;4.33;4.00;;;;;;;;5012942;28;51007;-61
2023/07/25 09:47:37;;;;;;;;;8.33;6.00;;;;;;;;5013437;28;50989;-62
2023/07/25 09:50:04;;;;;;;;;7.00;6.00;;;;;;;;5013242;28;50896;-62
2023/07/25 09:52:47;;;;;;;;;5.00;5.00;;;;;;;;5012941;28;51063;-62
2023/07/25 09:55:12;;;;;;;;;3.00;2.00;;;;;;;;5012633;28;51028;-63
2023/07/25 09:57:38;;;;;;;;;6.00;6.00;;;;;;;;5012998;28;51132;-62
2023/07/25 10:00:05;;;;;;;;;5.67;5.00;;;;;;;;5013018;28;51276;-63
2023/07/25 10:02:31;;;;;;;;;7.00;6.33;;;;;;;;5012549;28;52557;-61
2023/07/25 10:04:58;;;;;;;;;8.67;8.00;;;;;;;;5012702;28;51036;-62
2023/07/25 10:07:25;;;;;;;;;6.67;6.00;;;;;;;;5012770;28;51154;-62
2023/07/25 10:09:51;;;;;;;;;6.00;6.00;;;;;;;;5012246;28;51101;-62
2023/07/25 10:12:16;;;;;;;;;7.33;7.00;;;;;;;;5012029;28;50905;-62
2023/07/25 10:14:42;;;;;;;;;7.00;6.00;;;;;;;;5009019;28;51216;-61
2023/07/25 10:17:07;;;;;;;;;7.00;7.00;;;;;;;;5012832;28;50869;-63
2023/07/25 10:19:51;;;;;;;;;6.00;6.00;;;;;;;;5003995;28;51080;-61
2023/07/25 10:22:31;;;;;;;;;7.00;7.00;;;;;;;;4997149;28;51930;-61
2023/07/25 10:24:56;;;;;;;;;5.00;5.00;;;;;;;;5012190;28;51198;-62
2023/07/25 10:27:21;;;;;;;;;6.67;6.67;;;;;;;;4992569;28;51179;-61
2023/07/25 10:29:47;;;;;;;;;7.67;7.00;;;;;;;;4993199;28;51166;-62
2023/07/25 10:32:13;;;;;;;;;8.00;8.00;;;;;;;;4992339;28;51206;-62
2023/07/25 10:34:48;;;;;;;;;9.00;8.00;;;;;;;;4992922;28;50999;-62
2023/07/25 10:37:28;;;;;;;;;8.67;8.00;;;;;;;;5000721;28;51158;-63
2023/07/25 10:40:12;;;;;;;;;8.00;7.33;;;;;;;;5012373;28;50999;-63
2023/07/25 10:42:41;;;;;;;;;9.33;9.00;;;;;;;;5011759;28;52073;-62
2023/07/25 10:45:07;;;;;;;;;8.00;7.00;;;;;;;;5011916;28;51088;-62
2023/07/25 10:47:41;;;;;;;;;9.00;9.00;;;;;;;;5012272;28;51126;-61
2023/07/25 10:50:07;;;;;;;;;9.33;9.33;;;;;;;;5012895;28;50960;-62
2023/07/25 10:52:42;;;;;;;;;6.67;6.00;;;;;;;;5010725;28;53927;-62
2023/07/25 10:55:08;;;;;;;;;4.67;4.67;;;;;;;;5012116;28;51129;-62
2023/07/25 10:57:34;;;;;;;;;9.33;8.67;;;;;;;;5012112;28;51060;-62
2023/07/25 11:00:00;;;;;;;;;9.00;9.00;;;;;;;;5010797;28;51363;-62
2023/07/25 11:02:28;;;;;;;;;8.67;8.33;;;;;;;;5012076;28;51093;-62
2023/07/25 11:05:13;;;;;;;;;7.00;6.33;;;;;;;;5011956;28;51057;-63
2023/07/25 11:07:45;;;;;;;;;10.00;10.00;;;;;;;;5010213;28;50951;-62
2023/07/25 11:10:10;;;;;;;;;10.00;8.00;;;;;;;;5011295;28;51457;-62
2023/07/25 11:12:36;;;;;;;;;8.00;8.00;;;;;;;;5011654;28;51921;-63
2023/07/25 11:15:01;;;;;;;;;9.33;8.33;;;;;;;;5011897;28;50936;-62
2023/07/25 11:17:27;;;;;;;;;10.00;10.00;;;;;;;;5012114;28;50970;-62
2023/07/25 11:19:52;;;;;;;;;8.33;8.33;;;;;;;;5012274;28;50844;-62
2023/07/25 11:22:18;;;;;;;;;10.00;10.00;;;;;;;;5011363;28;51864;-61
2023/07/25 11:24:44;;;;;;;;;8.67;8.00;;;;;;;;5011557;28;51034;-62
2023/07/25 11:27:10;;;;;;;;;10.67;10.67;;;;;;;;5011599;28;50993;-62
2023/07/25 11:29:35;;;;;;;;;6.67;6.67;;;;;;;;5011821;28;50880;-62
2023/07/25 11:32:01;;;;;;;;;6.67;6.67;;;;;;;;5011597;28;51841;-62
2023/07/25 11:34:26;;;;;;;;;7.00;7.00;;;;;;;;5015010;28;51082;-62
2023/07/25 11:36:51;;;;;;;;;6.00;5.67;;;;;;;;5015056;28;51086;-61
2023/07/25 11:39:17;;;;;;;;;8.00;6.00;;;;;;;;5014996;28;51409;-61
2023/07/25 11:41:44;;;;;;;;;4.00;4.00;;;;;;;;5014509;28;52494;-61
2023/07/25 11:44:10;;;;;;;;;7.00;7.00;;;;;;;;5013420;28;51078;-62
2023/07/25 11:46:40;;;;;;;;;6.33;6.33;;;;;;;;5014908;28;51171;-62
2023/07/25 11:49:06;;;;;;;;;5.33;5.33;;;;;;;;5015482;28;51343;-62
2023/07/25 11:51:31;;;;;;;;;8.33;8.00;;;;;;;;5014744;28;51784;-61
2023/07/25 11:53:57;;;;;;;;;5.67;5.00;;;;;;;;5015173;28;50971;-63
2023/07/25 11:56:23;;;;;;;;;5.00;5.00;;;;;;;;5014867;28;50967;-63
2023/07/25 11:58:49;;;;;;;;;6.67;6.33;;;;;;;;5015033;28;51299;-63
2023/07/25 12:01:15;;;;;;;;;5.00;5.00;;;;;;;;5014561;28;51718;-62
2023/07/25 12:03:47;;;;;;;;;6.67;6.00;;;;;;;;5014504;28;51056;-62
2023/07/25 12:06:13;;;;;;;;;5.67;5.67;;;;;;;;5008953;28;51300;-62
2023/07/25 12:08:42;;;;;;;;;6.00;5.67;;;;;;;;5002144;28;50862;-62
2023/07/25 12:11:14;;;;;;;;;6.00;6.00;;;;;;;;5013911;28;52022;-62
2023/07/25 12:13:49;;;;;;;;;5.00;5.00;;;;;;;;5012783;28;50917;-62
2023/07/25 12:16:24;;;;;;;;;7.67;7.67;;;;;;;;5014309;28;51300;-61
2023/07/25 12:18:51;;;;;;;;;4.33;4.00;;;;;;;;5014365;28;50951;-61
2023/07/25 12:21:23;;;;;;;;;7.33;7.00;;;;;;;;5012904;28;53010;-60
2023/07/25 12:23:51;;;;;;;;;6.33;6.33;;;;;;;;5014205;28;51032;-62
2023/07/25 12:26:20;;;;;;;;;6.00;5.33;;;;;;;;5014089;28;51188;-61
2023/07/25 12:28:45;;;;;;;;;8.33;8.00;;;;;;;;5014267;28;51241;-62
2023/07/25 12:31:11;;;;;;;;;7.00;5.67;;;;;;;;5013713;28;51076;-61
2023/07/25 12:33:37;;;;;;;;;5.00;5.00;;;;;;;;5014156;28;51164;-61
2023/07/25 12:36:03;;;;;;;;;5.00;5.00;;;;;;;;5014369;28;51033;-62
2023/07/25 12:38:28;;;;;;;;;5.00;5.00;;;;;;;;5012976;28;51154;-62
2023/07/25 12:40:54;;;;;;;;;7.00;5.00;;;;;;;;5014220;28;51174;-62
2023/07/25 12:43:19;;;;;;;;;8.00;8.00;;;;;;;;5012795;28;51085;-62
2023/07/25 12:45:45;;;;;;;;;6.00;5.00;;;;;;;;5014527;28;50923;-62
2023/07/25 12:48:10;;;;;;;;;6.00;5.67;;;;;;;;5014251;28;51097;-61
2023/07/25 12:50:35;;;;;;;;;3.00;3.00;;;;;;;;5013876;28;51870;-62
2023/07/25 12:53:01;;;;;;;;;5.00;5.00;;;;;;;;5014107;28;51151;-62
2023/07/25 12:55:26;;;;;;;;;4.67;4.67;;;;;;;;5013910;28;51102;-62
2023/07/25 12:57:51;;;;;;;;;5.00;4.00;;;;;;;;5014280;28;50931;-62
2023/07/25 13:00:17;;;;;;;;;5.00;4.00;;;;;;;;5013660;28;51832;-62
2023/07/25 13:02:43;;;;;;;;;5.00;5.00;;;;;;;;5013685;28;50972;-62
2023/07/25 13:05:08;;;;;;;;;7.00;7.00;;;;;;;;5013982;28;50875;-63
2023/07/25 13:07:35;;;;;;;;;5.00;5.00;;;;;;;;5013708;28;51022;-62
2023/07/25 13:10:00;;;;;;;;;3.00;3.00;;;;;;;;5012768;28;52718;-62
2023/07/25 13:12:25;;;;;;;;;3.00;2.67;;;;;;;;5013594;28;50923;-62
2023/07/25 13:14:50;;;;;;;;;4.33;4.33;;;;;;;;5013857;28;50916;-63
2023/07/25 13:17:15;;;;;;;;;5.00;5.00;;;;;;;;5013587;28;51024;-62
2023/07/25 13:19:41;;;;;;;;;6.00;6.00;;;;;;;;5013483;28;51858;-62
2023/07/25 13:22:06;;;;;;;;;5.00;5.00;;;;;;;;5008643;28;50984;-62
2023/07/25 13:24:31;;;;;;;;;3.33;3.33;;;;;;;;4993899;28;51234;-62
2023/07/25 13:26:56;;;;;;;;;3.67;3.67;;;;;;;;4992343;28;52260;-62
2023/07/25 13:29:22;;;;;;;;;4.33;4.33;;;;;;;;4993529;28;51253;-62
2023/07/25 13:31:47;;;;;;;;;5.67;5.00;;;;;;;;4993567;28;51082;-62
2023/07/25 13:34:12;;;;;;;;;5.00;4.00;;;;;;;;4993921;28;50989;-63
2023/07/25 13:36:38;;;;;;;;;3.00;2.67;;;;;;;;4993771;28;50937;-62
2023/07/25 13:39:03;;;;;;;;;4.67;4.67;;;;;;;;4993029;28;51153;-62
2023/07/25 13:41:28;;;;;;;;;5.33;5.00;;;;;;;;4993342;28;51140;-62
2023/07/25 13:43:53;;;;;;;;;3.33;3.33;;;;;;;;4993848;28;50972;-62
2023/07/25 13:46:18;;;;;;;;;6.33;5.00;;;;;;;;4993625;28;51281;-62
2023/07/25 13:48:47;;;;;;;;;5.00;5.00;;;;;;;;4993003;28;51880;-62
2023/07/25 13:51:12;;;;;;;;;6.00;5.67;;;;;;;;4992052;28;50977;-62
2023/07/25 13:53:37;;;;;;;;;5.67;5.67;;;;;;;;4991879;28;50900;-62
2023/07/25 13:56:03;;;;;;;;;5.00;5.00;;;;;;;;4992853;28;50892;-62
2023/07/25 13:58:28;;;;;;;;;6.00;5.33;;;;;;;;4992886;28;52652;-61
2023/07/25 14:00:53;;;;;;;;;13.00;11.00;;;;;;;;4993260;28;51079;-62
2023/07/25 14:03:19;;;;;;;;;3.00;3.00;;;;;;;;4993559;28;50879;-62
2023/07/25 14:05:44;;;;;;;;;4.00;3.00;;;;;;;;4993487;28;50866;-62
2023/07/25 14:08:09;;;;;;;;;2.00;2.00;;;;;;;;4998147;28;51797;-62
2023/07/25 14:10:35;;;;;;;;;3.67;3.67;;;;;;;;5011628;28;51066;-62
2023/07/25 14:13:00;;;;;;;;;4.67;4.00;;;;;;;;5014472;28;50885;-61
2023/07/25 14:15:26;;;;;;;;;8.33;7.67;;;;;;;;5011329;28;51090;-61
2023/07/25 14:17:51;;;;;;;;;7.00;7.00;;;;;;;;5002263;28;53604;-61
2023/07/25 14:20:16;;;;;;;;;6.00;5.00;;;;;;;;4975681;28;51403;-62
2023/07/25 14:22:41;;;;;;;;;6.00;6.00;;;;;;;;4975229;28;51121;-61
2023/07/25 14:25:07;;;;;;;;;5.33;5.00;;;;;;;;4992874;28;50961;-62
2023/07/25 14:27:32;;;;;;;;;6.00;5.00;;;;;;;;4992651;28;51746;-61
2023/07/25 14:29:57;;;;;;;;;6.00;5.00;;;;;;;;5003513;28;51076;-61
2023/07/25 14:32:23;;;;;;;;;4.00;3.33;;;;;;;;4992777;28;51078;-62